Terminal Aerodrome Forecast
Issued by NWS

Home | Current Version | Previous Version | Text Only | Print | Product List | Glossary On
Versions: 1 2 3 4 5 6 7 8 9 10 11 12 13 14 15
850
FTUS41 KPBZ 080524
TAFZZV
TAF
KZZV 080524Z 0806/0906 18005KT P6SM BKN120
     FM081000 16005KT 3SM -RASN OVC020
     FM081200 16005KT 2SM -SNRA BR OVC010
     FM081800 22005KT 5SM -RASN BKN015
     FM090100 22005KT 2SM -SN BR OVC010=

USA.gov is the U.S. government's official web portal to all federal, state and local government web resources and services.